Time;durP1;ratioP1;P1;durP2;ratioP2;P2;SDS_P1;SDS_P2;PMS_P1;PMS_P2;Temp;Humidity;BMP_temperature;BMP_pressure;BME280_temperature;BME280_humidity;BME280_pressure;Samples;Min_cycle;Max_cycle;Signal;HPM_P1;HPM_P2
2022/09/29 00:00:58;;;;;;;5.10;4.70;;;8.80;99.90;;;;;;4996580;28;91693;-70
2022/09/29 00:03:24;;;;;;;5.85;5.13;;;8.80;99.90;;;;;;4995126;28;93396;-70
2022/09/29 00:05:53;;;;;;;6.53;6.00;;;8.70;99.90;;;;;;4996219;28;93087;-70
2022/09/29 00:08:24;;;;;;;5.97;5.38;;;8.70;99.90;;;;;;4993857;28;94869;-70
2022/09/29 00:10:51;;;;;;;5.60;5.20;;;8.70;99.90;;;;;;4994949;28;92546;-70
2022/09/29 00:13:18;;;;;;;6.45;5.85;;;8.70;99.90;;;;;;4978421;28;93200;-70
2022/09/29 00:15:56;;;;;;;5.78;5.28;;;8.70;99.90;;;;;;4994573;28;95520;-70
2022/09/29 00:18:23;;;;;;;6.60;5.25;;;8.70;99.90;;;;;;4994109;28;92536;-70
2022/09/29 00:21:03;;;;;;;6.32;5.70;;;8.60;99.90;;;;;;4995222;28;92507;-70
2022/09/29 00:23:32;;;;;;;6.30;5.80;;;8.60;99.90;;;;;;4995172;28;92402;-70
2022/09/29 00:26:20;;;;;;;7.00;5.47;;;8.50;99.90;;;;;;4996060;28;92696;-70
2022/09/29 00:28:55;;;;;;;5.22;4.18;;;8.60;99.90;;;;;;4994771;28;93019;-70
2022/09/29 00:31:27;;;;;;;5.90;4.78;;;8.50;99.90;;;;;;4996029;28;92432;-70
2022/09/29 00:33:54;;;;;;;5.93;5.43;;;8.50;99.90;;;;;;4994438;28;95670;-70
2022/09/29 00:36:23;;;;;;;4.65;4.25;;;8.50;99.90;;;;;;4994334;28;95322;-70
2022/09/29 00:38:53;;;;;;;5.35;4.88;;;8.50;99.90;;;;;;4977968;28;92434;-70
2022/09/29 00:41:23;;;;;;;6.20;5.60;;;8.50;99.90;;;;;;4994229;28;93090;-70
2022/09/29 00:43:56;;;;;;;5.53;5.10;;;8.40;99.90;;;;;;4995651;28;93199;-70
2022/09/29 00:46:52;;;;;;;7.35;6.75;;;8.40;99.90;;;;;;4994391;28;92577;-70
2022/09/29 00:50:01;;;;;;;6.80;6.20;;;8.40;99.90;;;;;;4995304;28;92469;-70
2022/09/29 00:52:44;;;;;;;6.72;6.13;;;8.40;99.90;;;;;;4995675;28;91731;-70
2022/09/29 00:55:48;;;;;;;7.25;6.65;;;8.40;99.90;;;;;;4994332;28;94194;-70
2022/09/29 00:58:29;;;;;;;7.65;6.95;;;8.40;99.90;;;;;;4991224;28;93068;-70
2022/09/29 01:00:55;;;;;;;8.68;7.30;;;8.30;99.90;;;;;;4992846;28;95087;-70
2022/09/29 01:03:27;;;;;;;7.03;6.43;;;8.30;99.90;;;;;;4995489;28;92431;-70
2022/09/29 01:06:00;;;;;;;7.22;6.63;;;8.40;99.90;;;;;;4996964;28;93677;-70
2022/09/29 01:08:50;;;;;;;8.18;6.68;;;8.40;99.90;;;;;;4997753;28;94827;-70
2022/09/29 01:11:20;;;;;;;6.50;6.00;;;8.40;99.90;;;;;;4998738;28;92943;-70
2022/09/29 01:13:48;;;;;;;6.90;6.30;;;8.30;99.90;;;;;;4998948;28;92500;-70
2022/09/29 01:16:15;;;;;;;6.90;6.32;;;8.30;99.90;;;;;;4998452;28;93301;-70
2022/09/29 01:18:43;;;;;;;6.38;5.80;;;8.30;99.90;;;;;;4998904;28;93085;-70
2022/09/29 01:21:37;;;;;;;6.72;6.00;;;8.30;99.90;;;;;;4997236;28;92480;-70
2022/09/29 01:24:41;;;;;;;7.25;5.85;;;8.30;99.90;;;;;;4981113;28;93010;-70
2022/09/29 01:27:19;;;;;;;6.10;5.60;;;8.30;99.90;;;;;;4995535;28;98448;-70
2022/09/29 01:30:04;;;;;;;6.00;5.45;;;8.30;99.90;;;;;;4998829;28;96025;-70
2022/09/29 01:33:19;;;;;;;6.50;6.00;;;8.20;99.90;;;;;;4998604;28;92645;-70
2022/09/29 01:35:45;;;;;;;6.50;5.90;;;8.20;99.90;;;;;;4975087;28;92493;-70
2022/09/29 01:38:45;;;;;;;6.45;5.85;;;8.10;99.90;;;;;;4998391;28;93276;-70
2022/09/29 01:41:24;;;;;;;7.22;6.63;;;8.20;99.90;;;;;;4982365;28;92943;-70
2022/09/29 01:44:30;;;;;;;7.72;6.85;;;8.10;99.90;;;;;;4998934;28;92961;-70
2022/09/29 01:47:31;;;;;;;7.53;6.82;;;8.20;99.90;;;;;;4999019;28;91773;-70
2022/09/29 01:50:31;;;;;;;7.28;6.18;;;8.10;99.90;;;;;;4991026;28;93813;-70
2022/09/29 01:53:07;;;;;;;7.53;6.80;;;8.10;99.90;;;;;;4996569;28;93153;-70
2022/09/29 01:55:40;;;;;;;8.02;6.85;;;8.10;99.90;;;;;;4997383;28;94950;-70
2022/09/29 01:58:34;;;;;;;8.68;7.65;;;8.10;99.90;;;;;;4998501;28;92553;-70
2022/09/29 02:01:05;;;;;;;8.40;7.70;;;8.10;99.90;;;;;;4998593;28;93141;-70
2022/09/29 02:03:47;;;;;;;8.05;6.60;;;8.10;99.90;;;;;;4997822;28;92927;-70
2022/09/29 02:06:20;;;;;;;7.93;7.13;;;8.10;99.90;;;;;;4997093;28;92606;-70
2022/09/29 02:08:52;;;;;;;7.45;6.78;;;8.10;99.90;;;;;;4998353;28;92529;-70
2022/09/29 02:11:19;;;;;;;7.47;6.88;;;8.10;99.90;;;;;;4996293;28;95911;-70
2022/09/29 02:13:52;;;;;;;7.68;6.88;;;8.10;99.90;;;;;;4997934;28;106465;-70
2022/09/29 02:16:24;;;;;;;7.15;6.45;;;8.10;99.90;;;;;;4997693;28;92474;-70
2022/09/29 02:19:03;;;;;;;7.28;6.57;;;8.00;99.90;;;;;;4996690;28;92527;-70
2022/09/29 02:21:30;;;;;;;7.20;6.60;;;8.10;99.90;;;;;;4994772;28;98300;-70
2022/09/29 02:23:57;;;;;;;7.63;6.93;;;8.00;99.90;;;;;;4996247;28;97882;-70
2022/09/29 02:26:30;;;;;;;8.13;7.10;;;8.00;99.90;;;;;;4997020;28;99675;-70
2022/09/29 02:28:57;;;;;;;8.23;6.88;;;8.00;99.90;;;;;;4996508;28;92489;-70
2022/09/29 02:31:25;;;;;;;8.07;7.38;;;8.00;99.90;;;;;;4997701;28;92474;-70
2022/09/29 02:33:52;;;;;;;8.88;7.97;;;8.00;99.90;;;;;;4997668;28;92751;-70
2022/09/29 02:36:21;;;;;;;7.05;6.45;;;8.00;99.90;;;;;;4997868;28;92356;-70
2022/09/29 02:39:20;;;;;;;9.23;8.32;;;8.00;99.90;;;;;;4996406;28;91846;-70
2022/09/29 02:42:07;;;;;;;9.93;6.85;;;8.00;99.90;;;;;;4997595;28;93307;-70
2022/09/29 02:45:00;;;;;;;9.40;7.38;;;8.00;99.90;;;;;;4996139;28;93114;-70
2022/09/29 02:47:44;;;;;;;7.70;7.00;;;7.90;99.90;;;;;;4996402;28;94789;-70
2022/09/29 02:50:20;;;;;;;9.80;6.40;;;7.90;99.90;;;;;;4996458;28;92475;-70
2022/09/29 02:53:18;;;;;;;7.90;6.22;;;7.90;99.90;;;;;;4995976;28;93313;-71
2022/09/29 02:56:11;;;;;;;7.63;6.65;;;7.90;99.90;;;;;;4995843;28;95664;-70
2022/09/29 02:58:54;;;;;;;6.72;6.13;;;7.80;99.90;;;;;;4979531;28;92418;-70
2022/09/29 03:01:22;;;;;;;7.90;6.67;;;7.80;99.90;;;;;;4996210;28;92453;-70
2022/09/29 03:03:49;;;;;;;9.93;7.90;;;7.70;99.90;;;;;;4978864;28;94445;-71
2022/09/29 03:06:18;;;;;;;7.97;6.18;;;7.70;99.90;;;;;;4997309;28;92960;-70
2022/09/29 03:08:45;;;;;;;11.50;6.40;;;7.70;99.90;;;;;;4996723;28;97942;-70
2022/09/29 03:11:11;;;;;;;14.68;7.38;;;7.70;99.90;;;;;;4995837;28;92516;-70
2022/09/29 03:13:38;;;;;;;7.53;6.80;;;7.70;99.90;;;;;;4995515;28;94867;-70
2022/09/29 03:16:05;;;;;;;7.63;5.75;;;7.60;99.90;;;;;;4995703;28;95490;-70
2022/09/29 03:18:32;;;;;;;7.03;6.32;;;7.60;99.90;;;;;;4996520;28;93406;-70
2022/09/29 03:20:59;;;;;;;7.07;6.30;;;7.60;99.90;;;;;;4995394;28;92466;-70
2022/09/29 03:23:26;;;;;;;6.93;6.28;;;7.60;99.90;;;;;;4997057;28;93285;-70
2022/09/29 03:25:53;;;;;;;6.68;6.07;;;7.60;99.90;;;;;;4995630;28;93000;-70
2022/09/29 03:28:20;;;;;;;6.78;6.18;;;7.60;99.90;;;;;;4994686;28;92572;-70
2022/09/29 03:30:47;;;;;;;6.55;6.00;;;7.60;99.90;;;;;;4997219;28;91667;-70
2022/09/29 03:33:14;;;;;;;6.25;5.65;;;7.50;99.90;;;;;;4978791;28;95882;-70
2022/09/29 03:35:41;;;;;;;6.63;6.13;;;7.50;99.90;;;;;;4995424;28;92661;-70
2022/09/29 03:38:10;;;;;;;6.75;6.18;;;7.50;99.90;;;;;;4995633;28;94806;-70
2022/09/29 03:40:37;;;;;;;5.97;5.47;;;7.50;99.90;;;;;;4996465;28;92431;-70
2022/09/29 03:43:04;;;;;;;6.95;6.15;;;7.50;99.90;;;;;;4995534;28;93427;-70
2022/09/29 03:45:30;;;;;;;11.20;7.07;;;7.50;99.90;;;;;;4994700;28;96392;-70
2022/09/29 03:47:58;;;;;;;7.15;6.00;;;7.50;99.90;;;;;;4995501;28;92441;-70
2022/09/29 03:50:25;;;;;;;12.13;6.22;;;7.50;99.90;;;;;;4996577;28;92459;-70
2022/09/29 03:52:52;;;;;;;16.35;6.40;;;7.50;99.90;;;;;;4994979;28;95709;-70
2022/09/29 03:55:19;;;;;;;20.42;7.57;;;7.50;99.90;;;;;;4996875;28;93037;-70
2022/09/29 03:57:46;;;;;;;30.35;7.32;;;7.50;99.90;;;;;;4996494;28;92598;-70
2022/09/29 04:00:13;;;;;;;22.67;7.07;;;7.50;99.90;;;;;;4996305;28;92890;-70
2022/09/29 04:02:40;;;;;;;62.03;9.52;;;7.50;99.90;;;;;;4994769;28;95646;-70
2022/09/29 04:05:07;;;;;;;61.78;10.40;;;7.50;99.90;;;;;;4996166;28;95386;-70
2022/09/29 04:07:34;;;;;;;118.22;12.15;;;7.50;99.90;;;;;;4995784;28;92456;-70
2022/09/29 04:10:01;;;;;;;86.03;10.75;;;7.50;99.90;;;;;;4995751;28;92494;-70
2022/09/29 04:12:27;;;;;;;89.80;10.93;;;7.50;99.90;;;;;;4994026;28;95760;-70
2022/09/29 04:14:54;;;;;;;66.55;9.63;;;7.40;99.90;;;;;;4995123;28;92423;-70
2022/09/29 04:17:21;;;;;;;52.58;10.15;;;7.40;99.90;;;;;;4996107;28;96339;-70
2022/09/29 04:19:48;;;;;;;43.05;9.45;;;7.40;99.90;;;;;;4995604;28;92274;-70
2022/09/29 04:22:18;;;;;;;53.33;8.80;;;7.40;99.90;;;;;;4994850;28;92911;-70
2022/09/29 04:24:47;;;;;;;69.32;10.40;;;7.40;99.90;;;;;;4994472;28;95252;-70
2022/09/29 04:27:14;;;;;;;38.60;8.70;;;7.40;99.90;;;;;;4993062;28;94873;-70
2022/09/29 04:29:41;;;;;;;35.20;8.90;;;7.40;99.90;;;;;;4994772;28;93035;-70
2022/09/29 04:32:08;;;;;;;41.45;9.23;;;7.40;99.90;;;;;;4994377;28;96265;-70
2022/09/29 04:34:35;;;;;;;53.35;9.52;;;7.40;99.90;;;;;;4995784;28;93077;-70
2022/09/29 04:37:02;;;;;;;47.00;8.98;;;7.40;99.90;;;;;;4994072;28;99634;-70
2022/09/29 04:39:29;;;;;;;57.05;9.50;;;7.30;99.90;;;;;;4994695;28;92994;-70
2022/09/29 04:41:56;;;;;;;44.25;10.15;;;7.30;99.90;;;;;;4977505;28;95884;-70
2022/09/29 04:44:24;;;;;;;24.13;9.05;;;7.30;99.90;;;;;;4995527;28;93071;-70
2022/09/29 04:46:52;;;;;;;30.13;9.10;;;7.30;99.90;;;;;;4977666;28;93058;-70
2022/09/29 04:49:19;;;;;;;48.28;9.82;;;7.30;99.90;;;;;;4994658;28;92588;-70
2022/09/29 04:51:46;;;;;;;20.08;8.35;;;7.20;99.90;;;;;;4994205;28;95574;-70
2022/09/29 04:54:13;;;;;;;24.45;8.20;;;7.20;99.90;;;;;;4994030;28;97951;-70
2022/09/29 04:56:41;;;;;;;15.85;8.27;;;7.20;99.90;;;;;;4995580;28;92473;-70
2022/09/29 04:59:09;;;;;;;25.48;8.98;;;7.20;99.90;;;;;;4994510;28;92484;-70
2022/09/29 05:01:36;;;;;;;12.73;8.30;;;7.30;99.90;;;;;;4995299;28;93374;-70
2022/09/29 05:04:03;;;;;;;41.67;9.73;;;7.30;99.90;;;;;;4977366;28;95655;-70
2022/09/29 05:06:30;;;;;;;31.73;9.73;;;7.30;99.90;;;;;;4995008;28;104514;-70
2022/09/29 05:08:57;;;;;;;32.25;9.10;;;7.20;99.90;;;;;;4994208;28;91717;-70
2022/09/29 05:11:24;;;;;;;35.17;8.73;;;7.20;99.90;;;;;;4993938;28;95761;-70
2022/09/29 05:13:51;;;;;;;29.17;9.25;;;7.20;99.90;;;;;;4993817;28;93038;-70
2022/09/29 05:16:17;;;;;;;32.28;9.30;;;7.20;99.90;;;;;;4959984;28;94875;-70
2022/09/29 05:18:44;;;;;;;40.53;10.05;;;7.30;99.90;;;;;;4993793;28;93165;-70
2022/09/29 05:21:11;;;;;;;37.75;10.38;;;7.30;99.90;;;;;;4994555;28;93159;-70
2022/09/29 05:23:55;;;;;;;30.63;9.70;;;7.20;99.90;;;;;;4994574;28;93167;-70
2022/09/29 05:26:22;;;;;;;58.10;12.00;;;7.20;99.90;;;;;;4995222;28;92371;-70
2022/09/29 05:28:49;;;;;;;55.00;13.50;;;7.20;99.90;;;;;;4994357;28;92572;-70
2022/09/29 05:31:16;;;;;;;50.65;11.45;;;7.20;99.90;;;;;;4976390;28;92887;-70
2022/09/29 05:33:43;;;;;;;63.15;12.90;;;7.20;99.90;;;;;;4976212;28;113666;-70
2022/09/29 05:36:12;;;;;;;60.15;12.57;;;7.20;99.90;;;;;;4994244;28;92375;-70
2022/09/29 05:38:39;;;;;;;87.20;13.35;;;7.20;99.90;;;;;;4994448;28;92443;-70
2022/09/29 05:41:09;;;;;;;66.32;14.10;;;7.20;99.90;;;;;;4992884;28;95709;-70
2022/09/29 05:43:37;;;;;;;108.22;14.07;;;7.20;99.90;;;;;;4994077;28;95542;-70
2022/09/29 05:46:06;;;;;;;131.48;13.35;;;7.20;99.90;;;;;;4960227;28;93389;-70
2022/09/29 05:48:33;;;;;;;105.50;14.25;;;7.20;99.90;;;;;;4976291;28;92584;-70
2022/09/29 05:51:10;;;;;;;112.28;14.38;;;7.20;99.90;;;;;;4994222;28;93225;-70
2022/09/29 05:53:38;;;;;;;107.10;12.77;;;7.20;99.90;;;;;;4979762;28;95755;-70
2022/09/29 05:56:11;;;;;;;86.93;13.30;;;7.20;99.90;;;;;;4995818;28;92541;-70
2022/09/29 05:58:39;;;;;;;68.45;11.60;;;7.20;99.90;;;;;;4998271;28;91630;-70
2022/09/29 06:01:11;;;;;;;31.48;9.45;;;7.20;99.90;;;;;;4995758;28;93211;-70
2022/09/29 06:03:39;;;;;;;57.35;10.23;;;7.20;99.90;;;;;;4998124;28;96019;-70
2022/09/29 06:06:13;;;;;;;35.53;9.55;;;7.30;99.90;;;;;;4994912;28;95467;-70
2022/09/29 06:08:40;;;;;;;21.33;8.43;;;7.30;99.90;;;;;;4998242;28;92506;-70
2022/09/29 06:11:16;;;;;;;20.48;8.70;;;7.30;99.90;;;;;;4997589;28;93135;-70
2022/09/29 06:13:46;;;;;;;24.50;8.50;;;7.30;99.90;;;;;;4996289;28;95536;-70
2022/09/29 06:16:15;;;;;;;11.23;7.78;;;7.40;99.90;;;;;;4997617;28;92437;-70
2022/09/29 06:18:42;;;;;;;10.63;8.40;;;7.40;99.90;;;;;;4997784;28;92471;-70
2022/09/29 06:21:15;;;;;;;34.53;9.32;;;7.50;99.90;;;;;;4995747;28;95739;-70
2022/09/29 06:23:43;;;;;;;31.42;8.77;;;7.50;99.90;;;;;;4996859;28;93002;-70
2022/09/29 06:26:13;;;;;;;25.77;8.63;;;7.50;99.90;;;;;;4996507;28;93358;-70
2022/09/29 06:28:40;;;;;;;10.43;7.97;;;7.60;99.90;;;;;;4996307;28;92526;-70
2022/09/29 06:31:15;;;;;;;13.68;8.05;;;7.60;99.90;;;;;;4996249;28;95536;-70
2022/09/29 06:33:43;;;;;;;11.98;8.60;;;7.70;99.90;;;;;;4996584;28;95051;-70
2022/09/29 06:39:04;;;;;;;18.30;9.88;;;7.80;99.90;;;;;;4997801;28;92434;-70
2022/09/29 06:41:31;;;;;;;11.68;9.75;;;7.80;99.90;;;;;;4997397;28;93102;-70
2022/09/29 06:43:59;;;;;;;16.33;9.43;;;7.90;99.90;;;;;;4995686;28;95655;-70
2022/09/29 06:46:26;;;;;;;20.13;10.68;;;8.00;99.90;;;;;;4997602;28;92454;-70
2022/09/29 06:48:53;;;;;;;19.45;11.70;;;8.10;99.90;;;;;;4979164;28;91748;-70
2022/09/29 06:51:21;;;;;;;11.15;10.00;;;8.20;99.90;;;;;;4996504;28;93077;-70
2022/09/29 06:53:49;;;;;;;10.88;9.68;;;8.30;99.90;;;;;;4996619;28;93359;-70
2022/09/29 06:56:18;;;;;;;14.57;10.85;;;8.50;99.90;;;;;;4996111;28;94985;-70
2022/09/29 06:58:45;;;;;;;10.85;9.82;;;8.60;99.90;;;;;;4996754;28;92462;-70
2022/09/29 07:01:12;;;;;;;12.25;10.90;;;8.70;99.90;;;;;;4996853;28;93316;-70
2022/09/29 07:03:40;;;;;;;11.43;10.32;;;8.80;99.90;;;;;;4995112;28;93203;-70
2022/09/29 07:06:09;;;;;;;13.52;9.35;;;8.90;99.90;;;;;;4996289;28;92451;-70
2022/09/29 07:08:55;;;;;;;9.98;8.98;;;9.00;99.90;;;;;;4997152;28;92520;-70
2022/09/29 07:11:22;;;;;;;10.93;9.80;;;9.10;99.90;;;;;;4996928;28;93260;-70
2022/09/29 07:13:53;;;;;;;11.38;10.27;;;9.20;99.90;;;;;;4996892;28;106991;-70
2022/09/29 07:16:24;;;;;;;12.15;10.50;;;9.30;99.90;;;;;;4994856;28;92383;-70
2022/09/29 07:18:52;;;;;;;16.92;11.20;;;9.30;99.90;;;;;;4996423;28;92547;-70
2022/09/29 07:21:20;;;;;;;12.85;11.55;;;9.40;99.90;;;;;;4995083;28;95547;-70
2022/09/29 07:23:47;;;;;;;13.57;12.15;;;9.40;99.90;;;;;;4994920;28;95515;-70
2022/09/29 07:26:16;;;;;;;22.88;11.68;;;9.50;99.90;;;;;;4996119;28;92550;-70
2022/09/29 07:28:45;;;;;;;16.02;11.55;;;9.50;99.90;;;;;;4996120;28;92531;-70
2022/09/29 07:31:15;;;;;;;18.83;11.40;;;9.60;99.90;;;;;;4995798;28;93354;-70
2022/09/29 07:33:47;;;;;;;16.83;11.27;;;9.60;99.90;;;;;;4994636;28;95784;-70
2022/09/29 07:36:16;;;;;;;15.15;10.98;;;9.70;99.90;;;;;;4996451;28;93033;-70
2022/09/29 07:38:48;;;;;;;16.08;12.30;;;9.80;99.90;;;;;;4996291;28;91744;-70
2022/09/29 07:41:16;;;;;;;12.80;11.50;;;9.80;99.90;;;;;;4978291;28;93300;-70
2022/09/29 07:43:43;;;;;;;13.02;11.60;;;9.90;99.90;;;;;;4978350;28;93047;-70
2022/09/29 07:46:10;;;;;;;20.33;12.90;;;10.00;99.90;;;;;;4992910;28;97677;-70
2022/09/29 07:48:37;;;;;;;13.52;12.32;;;10.10;99.90;;;;;;4994902;28;92526;-70
2022/09/29 07:51:13;;;;;;;17.77;13.00;;;10.20;99.90;;;;;;4995796;28;93361;-70
2022/09/29 07:53:40;;;;;;;14.05;12.63;;;10.30;99.90;;;;;;4996015;28;93056;-70
2022/09/29 07:56:09;;;;;;;29.90;13.18;;;10.30;99.90;;;;;;4994517;28;92550;-70
2022/09/29 07:58:36;;;;;;;16.85;12.15;;;10.40;99.90;;;;;;4994746;28;92488;-70
2022/09/29 08:01:09;;;;;;;14.00;12.10;;;10.50;99.90;;;;;;4995715;28;92522;-70
2022/09/29 08:03:37;;;;;;;19.13;16.90;;;10.60;99.90;;;;;;4996140;28;93106;-70
2022/09/29 08:06:06;;;;;;;32.13;29.52;;;10.80;99.90;;;;;;4994271;28;92529;-70
2022/09/29 08:08:39;;;;;;;28.75;26.35;;;10.90;99.90;;;;;;4994646;28;102387;-70
2022/09/29 08:11:12;;;;;;;17.50;14.88;;;11.10;99.90;;;;;;4994336;28;95864;-70
2022/09/29 08:13:54;;;;;;;15.68;14.13;;;11.20;99.90;;;;;;4994933;28;94361;-70
2022/09/29 08:16:22;;;;;;;33.58;30.55;;;11.40;99.90;;;;;;4995665;28;93079;-70
2022/09/29 08:18:49;;;;;;;18.42;16.52;;;11.60;99.90;;;;;;4993156;28;103109;-70
2022/09/29 08:21:16;;;;;;;19.65;17.65;;;11.70;99.90;;;;;;4993765;28;95871;-70
2022/09/29 08:23:43;;;;;;;73.72;60.17;;;11.80;99.90;;;;;;4993901;28;95495;-70
2022/09/29 08:26:16;;;;;;;14.73;13.20;;;12.00;99.90;;;;;;4993949;28;92569;-70
2022/09/29 08:28:44;;;;;;;21.45;19.27;;;12.20;99.90;;;;;;4995951;28;91693;-70
2022/09/29 08:31:19;;;;;;;14.63;13.23;;;12.30;99.90;;;;;;4977481;28;95769;-70
2022/09/29 08:33:50;;;;;;;14.50;13.10;;;12.40;99.90;;;;;;4995271;28;92974;-70
2022/09/29 08:36:20;;;;;;;15.32;13.82;;;12.60;99.90;;;;;;4993260;28;95522;-70
2022/09/29 08:38:50;;;;;;;17.98;16.13;;;12.70;99.90;;;;;;4993892;28;92388;-71
2022/09/29 08:41:41;;;;;;;17.73;16.15;;;12.70;99.90;;;;;;4976861;28;96166;-70
2022/09/29 08:44:10;;;;;;;17.25;15.75;;;12.80;99.90;;;;;;4995321;28;93015;-70
2022/09/29 08:47:03;;;;;;;20.90;19.00;;;12.70;99.90;;;;;;4994045;28;92533;-70
2022/09/29 08:49:44;;;;;;;19.55;17.67;;;12.80;99.90;;;;;;4995086;28;92891;-70
2022/09/29 08:52:19;;;;;;;15.88;14.30;;;12.80;99.90;;;;;;4993521;28;95888;-71
2022/09/29 08:54:49;;;;;;;15.13;13.60;;;12.70;99.90;;;;;;4995448;28;93132;-70
2022/09/29 08:57:18;;;;;;;13.90;12.43;;;12.70;99.90;;;;;;4994931;28;92716;-70
2022/09/29 08:59:57;;;;;;;14.57;13.10;;;12.70;99.90;;;;;;4994489;28;104136;-70
2022/09/29 09:02:50;;;;;;;14.57;13.10;;;12.80;99.90;;;;;;4991811;28;97259;-70
2022/09/29 09:05:43;;;;;;;15.23;13.32;;;12.80;99.90;;;;;;4994709;28;95417;-70
2022/09/29 09:08:47;;;;;;;14.27;12.90;;;12.80;99.90;;;;;;4993543;28;92505;-70
2022/09/29 09:11:17;;;;;;;13.10;11.90;;;12.90;99.90;;;;;;4981192;28;92566;-70
2022/09/29 09:13:56;;;;;;;13.88;12.57;;;12.80;99.90;;;;;;4994749;28;93387;-70
2022/09/29 09:17:00;;;;;;;14.63;13.13;;;12.90;99.90;;;;;;4992941;28;95750;-70
2022/09/29 09:19:32;;;;;;;14.20;12.68;;;13.00;99.90;;;;;;4994196;28;92530;-70
2022/09/29 09:22:18;;;;;;;16.10;14.50;;;13.00;99.90;;;;;;4993743;28;91874;-70
2022/09/29 09:24:48;;;;;;;21.90;19.90;;;13.00;99.90;;;;;;4994447;28;93417;-70
2022/09/29 09:27:21;;;;;;;14.32;12.93;;;13.10;99.90;;;;;;4995185;28;93417;-71
2022/09/29 09:29:52;;;;;;;15.30;11.77;;;13.30;99.90;;;;;;4996649;28;95502;-71
2022/09/29 09:32:27;;;;;;;12.90;11.68;;;13.30;99.90;;;;;;4998215;28;92375;-70
2022/09/29 09:35:00;;;;;;;12.85;11.70;;;13.40;99.90;;;;;;4996731;28;95710;-70
2022/09/29 09:37:45;;;;;;;10.65;9.65;;;13.50;99.90;;;;;;4997765;28;93091;-70
2022/09/29 09:40:23;;;;;;;13.77;10.27;;;13.60;99.90;;;;;;4980190;28;108474;-70
2022/09/29 09:43:06;;;;;;;9.75;8.82;;;13.80;99.90;;;;;;4980244;28;92491;-70
2022/09/29 09:45:40;;;;;;;9.80;8.80;;;13.90;99.90;;;;;;4998280;28;93225;-70
2022/09/29 09:48:30;;;;;;;9.82;8.98;;;14.00;99.90;;;;;;4997275;28;95166;-71
2022/09/29 09:51:15;;;;;;;8.75;7.88;;;14.10;99.90;;;;;;4997291;28;92550;-71
2022/09/29 09:53:46;;;;;;;8.25;7.45;;;14.20;99.90;;;;;;4997018;28;92883;-71
2022/09/29 09:56:22;;;;;;;7.40;6.82;;;14.30;99.90;;;;;;4995906;28;95664;-71
2022/09/29 09:59:02;;;;;;;9.50;8.60;;;14.40;99.90;;;;;;4998046;28;95333;-71
2022/09/29 10:01:29;;;;;;;7.57;6.78;;;14.60;99.90;;;;;;4998240;28;92458;-71
2022/09/29 10:03:58;;;;;;;7.85;7.05;;;14.60;99.90;;;;;;4996675;28;97903;-71
2022/09/29 10:06:25;;;;;;;7.95;7.15;;;14.80;99.90;;;;;;4996873;28;93374;-71
2022/09/29 10:08:52;;;;;;;8.73;7.55;;;14.90;99.90;;;;;;4996478;28;93338;-71
2022/09/29 10:11:25;;;;;;;8.88;6.60;;;15.00;99.90;;;;;;4996949;28;92556;-71
2022/09/29 10:14:14;;;;;;;7.27;6.67;;;15.10;99.90;;;;;;4996978;28;91777;-71
2022/09/29 10:16:49;;;;;;;6.22;5.53;;;15.20;99.90;;;;;;4996282;28;95628;-71
2022/09/29 10:19:54;;;;;;;6.80;6.20;;;15.30;99.90;;;;;;4996546;28;93206;-71
2022/09/29 10:22:21;;;;;;;6.85;6.30;;;15.40;99.90;;;;;;4996943;28;94757;-71
2022/09/29 10:24:55;;;;;;;10.07;9.35;;;15.50;99.90;;;;;;4996396;28;92430;-71
2022/09/29 10:27:26;;;;;;;6.82;5.95;;;15.50;99.90;;;;;;4979966;28;96180;-71
2022/09/29 10:29:55;;;;;;;5.78;5.38;;;15.60;99.90;;;;;;4997583;28;92489;-71
2022/09/29 10:32:35;;;;;;;4.70;4.10;;;15.70;99.90;;;;;;4997449;28;92757;-71
2022/09/29 10:35:15;;;;;;;5.68;5.18;;;15.90;99.90;;;;;;4997806;28;92480;-71
2022/09/29 10:37:46;;;;;;;6.20;5.80;;;15.90;99.90;;;;;;4997445;28;93302;-71
2022/09/29 10:40:19;;;;;;;5.82;4.75;;;16.00;99.90;;;;;;4996562;28;95659;-71
2022/09/29 10:42:48;;;;;;;4.47;4.18;;;16.10;99.90;;;;;;4979831;28;92538;-71
2022/09/29 10:45:29;;;;;;;4.65;4.28;;;16.20;99.90;;;;;;4993578;28;92559;-71
2022/09/29 10:47:56;;;;;;;5.55;5.13;;;16.40;99.90;;;;;;4978166;28;98244;-71
2022/09/29 10:50:51;;;;;;;6.10;4.70;;;16.40;99.90;;;;;;4979129;28;97806;-71
2022/09/29 10:53:37;;;;;;;5.45;4.97;;;16.60;99.90;;;;;;4996235;28;92440;-71
2022/09/29 10:56:17;;;;;;;6.28;3.90;;;16.60;99.90;;;;;;4996131;28;92594;-71
2022/09/29 10:58:54;;;;;;;4.97;4.57;;;16.60;99.90;;;;;;4996974;28;93370;-71
2022/09/29 11:01:34;;;;;;;4.22;3.92;;;16.60;99.90;;;;;;4995833;28;95555;-71
2022/09/29 11:04:05;;;;;;;4.47;4.07;;;16.60;99.90;;;;;;4997316;28;92355;-71
2022/09/29 11:06:38;;;;;;;5.20;4.00;;;16.70;99.90;;;;;;4996647;28;91770;-71
2022/09/29 11:09:12;;;;;;;3.53;3.22;;;16.80;99.90;;;;;;4979776;28;95744;-71
2022/09/29 11:11:52;;;;;;;3.75;3.30;;;16.90;99.90;;;;;;4978874;28;95649;-71
2022/09/29 11:14:28;;;;;;;4.75;3.90;;;17.00;99.90;;;;;;4994648;28;94996;-71
2022/09/29 11:16:58;;;;;;;2.85;2.55;;;17.10;99.90;;;;;;4995764;28;92477;-71
2022/09/29 11:19:28;;;;;;;3.28;2.85;;;17.30;99.90;;;;;;4994958;28;96026;-71
2022/09/29 11:22:02;;;;;;;4.00;3.70;;;17.40;99.30;;;;;;4995775;28;93037;-71
2022/09/29 11:24:40;;;;;;;3.15;2.60;;;17.50;98.80;;;;;;4997211;28;92439;-71
2022/09/29 11:27:15;;;;;;;2.60;1.75;;;17.60;98.00;;;;;;4997223;28;92364;-71
2022/09/29 11:30:00;;;;;;;2.58;2.38;;;17.80;97.30;;;;;;4996550;28;93185;-71
2022/09/29 11:33:06;;;;;;;4.13;3.38;;;18.00;97.10;;;;;;4996111;28;93103;-71
2022/09/29 11:36:06;;;;;;;2.83;2.63;;;18.30;96.50;;;;;;4993227;28;92579;-71
2022/09/29 11:38:58;;;;;;;3.70;1.90;;;18.50;96.30;;;;;;4974014;28;92465;-71
2022/09/29 11:41:45;;;;;;;3.65;1.90;;;18.60;96.20;;;;;;4995372;28;95563;-71
2022/09/29 11:44:30;;;;;;;3.53;3.33;;;18.60;96.00;;;;;;4978522;28;96437;-71
2022/09/29 11:46:57;;;;;;;3.17;2.90;;;18.70;95.30;;;;;;4995483;28;92573;-71
2022/09/29 11:49:45;;;;;;;2.47;2.28;;;18.60;95.50;;;;;;4994412;28;94791;-71
2022/09/29 11:52:55;;;;;;;2.45;2.35;;;18.60;95.00;;;;;;4996559;28;93170;-71
2022/09/29 11:55:25;;;;;;;2.53;2.33;;;18.70;94.80;;;;;;4995250;28;92494;-71
2022/09/29 11:58:35;;;;;;;2.58;2.22;;;18.70;94.60;;;;;;4978411;28;92378;-71
2022/09/29 12:01:12;;;;;;;2.30;2.10;;;18.80;94.00;;;;;;4996382;28;91741;-71
2022/09/29 12:03:42;;;;;;;2.67;2.42;;;18.70;94.50;;;;;;4996483;28;92475;-71
2022/09/29 12:06:30;;;;;;;2.15;1.63;;;18.70;94.20;;;;;;4995912;28;92977;-71
2022/09/29 12:09:18;;;;;;;1.60;1.50;;;18.70;93.90;;;;;;4995248;28;95080;-71
2022/09/29 12:12:04;;;;;;;2.50;2.30;;;18.70;93.70;;;;;;4996564;28;92372;-71
2022/09/29 12:15:07;;;;;;;2.28;2.17;;;18.80;93.90;;;;;;4995617;28;93252;-71
2022/09/29 12:17:44;;;;;;;2.35;2.10;;;18.90;93.50;;;;;;4996178;28;92885;-71
2022/09/29 12:20:25;;;;;;;3.35;3.15;;;19.10;92.90;;;;;;4996005;28;92855;-71
2022/09/29 12:22:54;;;;;;;3.55;3.25;;;19.30;92.90;;;;;;4995929;28;92532;-71
2022/09/29 12:25:27;;;;;;;2.58;1.75;;;19.30;93.00;;;;;;4994613;28;93419;-71
2022/09/29 12:28:04;;;;;;;2.25;2.15;;;19.40;92.90;;;;;;4996149;28;93009;-71
2022/09/29 12:30:40;;;;;;;4.55;3.10;;;19.40;92.50;;;;;;4994900;28;92473;-71
2022/09/29 12:33:19;;;;;;;3.35;3.05;;;19.40;92.50;;;;;;4994540;28;92451;-71
2022/09/29 12:36:42;;;;;;;3.15;2.95;;;19.40;92.60;;;;;;4994708;28;95552;-71
2022/09/29 12:39:04;;;;;;;2.08;1.77;;;19.50;92.60;;;;;;4993645;28;98009;-71
2022/09/29 12:41:40;;;;;;;3.00;2.15;;;19.70;92.60;;;;;;4994742;28;92770;-71
2022/09/29 12:44:39;;;;;;;1.98;1.60;;;19.80;92.20;;;;;;4995668;28;92938;-71
2022/09/29 12:47:44;;;;;;;2.10;1.95;;;19.90;91.80;;;;;;4995646;28;93221;-71
2022/09/29 12:50:24;;;;;;;1.85;1.75;;;19.90;90.80;;;;;;4995187;28;93384;-71
2022/09/29 12:53:04;;;;;;;3.53;3.10;;;19.80;91.30;;;;;;4996079;28;92910;-71
2022/09/29 12:55:49;;;;;;;1.60;1.40;;;19.80;91.60;;;;;;4994761;28;91763;-71
2022/09/29 12:58:42;;;;;;;1.92;1.58;;;19.80;91.30;;;;;;4994116;28;93382;-71
2022/09/29 13:01:19;;;;;;;2.60;1.25;;;19.80;90.40;;;;;;4994423;28;93038;-71
2022/09/29 13:04:20;;;;;;;1.98;1.88;;;19.80;90.80;;;;;;4994408;28;94851;-71
2022/09/29 13:07:08;;;;;;;2.45;2.25;;;19.90;90.40;;;;;;4995555;28;92347;-71
2022/09/29 13:10:09;;;;;;;1.30;1.20;;;19.90;90.40;;;;;;4977430;28;93313;-71
2022/09/29 13:13:14;;;;;;;2.03;1.83;;;19.90;89.80;;;;;;4994032;28;95716;-71
2022/09/29 13:16:03;;;;;;;2.45;1.65;;;20.00;89.30;;;;;;4983315;28;92477;-71
2022/09/29 13:18:59;;;;;;;1.58;1.58;;;19.90;89.80;;;;;;4977710;28;92437;-71
2022/09/29 13:21:51;;;;;;;3.40;3.13;;;20.10;89.00;;;;;;4995269;28;93403;-71
2022/09/29 13:24:38;;;;;;;2.80;2.63;;;20.20;90.30;;;;;;4995548;28;91619;-71
2022/09/29 13:27:26;;;;;;;2.30;2.10;;;20.20;90.20;;;;;;4995440;28;92531;-71
2022/09/29 13:30:03;;;;;;;2.75;1.95;;;20.20;90.20;;;;;;4995313;28;92475;-71